Time;durP1;ratioP1;P1;durP2;ratioP2;P2;SDS_P1;SDS_P2;PMS_P1;PMS_P2;Temp;Humidity;BMP_temperature;BMP_pressure;BME280_temperature;BME280_humidity;BME280_pressure;Samples;Min_cycle;Max_cycle;Signal;HPM_P1;HPM_P2
2022/04/24 00:01:34;;;;;;;7.28;5.15;;;7.90;99.90;;;;;;5072551;28;20724;-84
2022/04/24 00:04:00;;;;;;;5.73;5.13;;;7.80;99.90;;;;;;5071216;28;20577;-83
2022/04/24 00:06:30;;;;;;;7.75;5.00;;;7.80;99.90;;;;;;5075008;28;20394;-84
2022/04/24 00:08:56;;;;;;;8.18;5.57;;;7.70;99.90;;;;;;5071064;28;20807;-84
2022/04/24 00:11:22;;;;;;;10.43;5.20;;;7.70;99.90;;;;;;5050916;28;20944;-82
2022/04/24 00:13:48;;;;;;;8.85;5.07;;;7.60;99.90;;;;;;5070325;28;20370;-83
2022/04/24 00:16:14;;;;;;;7.38;5.47;;;7.70;99.90;;;;;;5072236;28;20392;-83
2022/04/24 00:18:39;;;;;;;6.18;5.13;;;7.70;99.90;;;;;;5072331;28;20384;-83
2022/04/24 00:21:05;;;;;;;7.30;5.10;;;7.70;99.90;;;;;;5071952;28;20374;-83
2022/04/24 00:23:32;;;;;;;8.27;5.35;;;7.60;99.90;;;;;;5070821;28;20481;-82
2022/04/24 00:25:58;;;;;;;7.50;5.07;;;7.70;99.90;;;;;;5071985;28;20390;-83
2022/04/24 00:28:24;;;;;;;7.55;4.93;;;7.60;99.90;;;;;;5071018;28;20469;-83
2022/04/24 00:30:49;;;;;;;8.77;5.93;;;7.60;99.90;;;;;;5072089;28;20943;-82
2022/04/24 00:33:15;;;;;;;8.47;5.17;;;7.50;99.90;;;;;;5072171;28;20907;-84
2022/04/24 00:35:41;;;;;;;8.23;4.90;;;7.50;99.90;;;;;;5071684;28;20370;-84
2022/04/24 00:38:07;;;;;;;6.72;5.03;;;7.50;99.90;;;;;;5072034;28;20465;-84
2022/04/24 00:40:33;;;;;;;6.85;4.97;;;7.50;99.90;;;;;;5071439;28;20404;-83
2022/04/24 00:42:58;;;;;;;6.60;5.03;;;7.40;99.90;;;;;;5071662;28;20397;-83
2022/04/24 00:45:24;;;;;;;8.27;5.30;;;7.30;99.90;;;;;;5070527;28;20816;-83
2022/04/24 00:47:50;;;;;;;7.93;5.65;;;7.30;99.90;;;;;;5070144;28;20897;-83
2022/04/24 00:50:16;;;;;;;8.27;5.63;;;7.30;99.90;;;;;;5071461;28;20386;-84
2022/04/24 00:52:43;;;;;;;7.93;5.53;;;7.30;99.90;;;;;;5070456;28;20382;-84
2022/04/24 00:55:09;;;;;;;7.85;5.93;;;7.20;99.90;;;;;;5085050;27;20405;-83
2022/04/24 00:57:35;;;;;;;6.55;5.22;;;7.20;99.90;;;;;;5090976;28;20851;-83
2022/04/24 01:00:02;;;;;;;6.88;5.43;;;7.20;99.90;;;;;;5072957;28;20397;-83
2022/04/24 01:02:27;;;;;;;9.52;5.80;;;7.10;99.90;;;;;;5078185;28;20368;-83
2022/04/24 01:04:53;;;;;;;7.80;5.53;;;7.20;99.90;;;;;;5090896;28;20365;-83
2022/04/24 01:07:19;;;;;;;7.97;5.60;;;7.10;99.90;;;;;;5090586;28;20730;-83
2022/04/24 01:09:44;;;;;;;7.37;5.17;;;7.10;99.90;;;;;;5089195;27;20384;-84
2022/04/24 01:12:10;;;;;;;8.90;5.73;;;7.20;99.90;;;;;;5065365;28;20389;-84
2022/04/24 01:14:36;;;;;;;7.07;5.18;;;7.10;99.90;;;;;;5071213;28;20438;-83
2022/04/24 01:17:04;;;;;;;9.32;5.72;;;7.10;99.90;;;;;;5072067;28;20886;-84
2022/04/24 01:19:31;;;;;;;6.65;5.80;;;7.00;99.90;;;;;;5070716;28;20756;-84
2022/04/24 01:21:57;;;;;;;8.02;5.57;;;6.90;99.90;;;;;;5071773;28;20374;-83
2022/04/24 01:24:26;;;;;;;9.13;5.95;;;6.90;99.90;;;;;;5077167;28;20401;-84
2022/04/24 01:26:51;;;;;;;6.80;5.22;;;6.90;99.90;;;;;;5089376;28;20392;-84
2022/04/24 01:29:20;;;;;;;8.13;6.10;;;6.90;99.90;;;;;;5076492;28;20961;-84
2022/04/24 01:31:48;;;;;;;9.80;6.00;;;6.90;99.90;;;;;;5071249;28;20934;-83
2022/04/24 01:34:16;;;;;;;8.48;5.80;;;6.80;99.90;;;;;;5071462;28;20440;-84
2022/04/24 01:36:42;;;;;;;8.32;5.85;;;6.70;99.90;;;;;;5093623;28;20412;-83
2022/04/24 01:39:08;;;;;;;9.73;6.47;;;6.70;99.90;;;;;;5091308;28;20458;-84
2022/04/24 01:41:37;;;;;;;8.52;6.00;;;6.70;99.90;;;;;;5090880;28;20389;-83
2022/04/24 01:44:03;;;;;;;8.68;5.95;;;6.80;99.90;;;;;;5091235;28;20396;-82
2022/04/24 01:46:29;;;;;;;8.40;5.80;;;6.70;99.90;;;;;;5089447;28;20388;-82
2022/04/24 01:48:54;;;;;;;6.70;5.57;;;6.70;99.90;;;;;;5090828;28;20776;-83
2022/04/24 01:51:20;;;;;;;8.27;5.63;;;6.70;99.90;;;;;;5089648;28;20396;-81
2022/04/24 01:53:46;;;;;;;7.77;5.73;;;6.70;99.90;;;;;;5091609;28;20434;-82
2022/04/24 01:56:12;;;;;;;8.57;5.85;;;6.70;99.90;;;;;;5078335;28;20386;-82
2022/04/24 01:58:39;;;;;;;8.38;5.82;;;6.60;99.90;;;;;;5068876;28;20752;-82
2022/04/24 02:01:05;;;;;;;6.68;5.93;;;6.60;99.90;;;;;;5069856;28;20378;-82
2022/04/24 02:03:31;;;;;;;7.22;5.95;;;6.50;99.90;;;;;;5069315;28;20944;-83
2022/04/24 02:05:57;;;;;;;7.47;5.88;;;6.50;99.90;;;;;;5070814;28;20374;-83
2022/04/24 02:08:24;;;;;;;8.30;6.20;;;6.50;99.90;;;;;;5069908;28;20370;-82
2022/04/24 02:10:49;;;;;;;7.85;5.70;;;6.60;99.90;;;;;;5069345;28;20397;-83
2022/04/24 02:13:16;;;;;;;7.97;6.07;;;6.60;99.90;;;;;;5070826;28;20378;-83
2022/04/24 02:15:42;;;;;;;6.72;5.18;;;6.60;99.90;;;;;;5070142;28;20382;-82
2022/04/24 02:18:08;;;;;;;6.70;5.68;;;6.60;99.90;;;;;;5071209;28;20481;-83
2022/04/24 02:20:34;;;;;;;7.95;6.13;;;6.60;99.90;;;;;;5073834;28;20737;-82
2022/04/24 02:23:00;;;;;;;8.20;5.97;;;6.60;99.90;;;;;;5088682;28;20428;-82
2022/04/24 02:25:27;;;;;;;9.57;6.30;;;6.60;99.90;;;;;;5089741;27;20379;-82
2022/04/24 02:27:54;;;;;;;7.82;5.60;;;6.60;99.90;;;;;;5087471;28;20388;-82
2022/04/24 02:30:24;;;;;;;10.48;5.88;;;6.60;99.90;;;;;;5068768;28;20472;-82
2022/04/24 02:32:50;;;;;;;8.70;6.17;;;6.50;99.90;;;;;;5068782;28;20427;-82
2022/04/24 02:35:16;;;;;;;9.05;5.82;;;6.50;99.90;;;;;;5070079;28;20439;-82
2022/04/24 02:37:42;;;;;;;8.70;5.97;;;6.50;99.90;;;;;;5073753;28;20374;-82
2022/04/24 02:40:09;;;;;;;7.45;6.25;;;6.40;99.90;;;;;;5069723;28;20580;-83
2022/04/24 02:42:38;;;;;;;10.43;6.50;;;6.40;99.90;;;;;;5069438;28;20880;-83
2022/04/24 02:45:06;;;;;;;8.37;6.03;;;6.30;99.90;;;;;;5069390;28;20382;-83
2022/04/24 02:47:32;;;;;;;8.40;5.88;;;6.30;99.90;;;;;;5070933;28;20392;-84
2022/04/24 02:49:58;;;;;;;6.97;5.87;;;6.30;99.90;;;;;;5072836;28;20555;-83
2022/04/24 02:52:23;;;;;;;7.50;5.47;;;6.30;99.90;;;;;;5087509;28;20734;-82
2022/04/24 02:54:49;;;;;;;10.80;6.30;;;6.30;99.90;;;;;;5088676;28;20427;-83
2022/04/24 02:57:14;;;;;;;7.57;5.40;;;6.30;99.90;;;;;;5089057;27;20384;-83
2022/04/24 02:59:44;;;;;;;6.83;5.77;;;6.30;99.90;;;;;;5088436;28;20384;-83
2022/04/24 03:02:12;;;;;;;9.57;6.40;;;6.30;99.90;;;;;;5087061;28;20890;-83
2022/04/24 03:04:38;;;;;;;8.75;5.78;;;6.40;99.90;;;;;;5088817;28;20392;-83
2022/04/24 03:07:04;;;;;;;9.18;6.32;;;6.30;99.90;;;;;;5086218;28;20380;-83
2022/04/24 03:09:29;;;;;;;7.85;6.53;;;6.20;99.90;;;;;;5068945;28;20720;-84
2022/04/24 03:11:55;;;;;;;7.78;5.70;;;6.30;99.90;;;;;;5069032;28;20906;-83
2022/04/24 03:14:20;;;;;;;10.05;5.95;;;6.30;99.90;;;;;;5067647;28;20524;-84
2022/04/24 03:16:46;;;;;;;7.73;6.40;;;6.20;99.90;;;;;;5068168;28;20381;-85
2022/04/24 03:19:12;;;;;;;8.63;6.10;;;6.30;99.90;;;;;;5069417;28;20382;-83
2022/04/24 03:21:37;;;;;;;8.38;5.95;;;6.30;99.90;;;;;;5069403;28;20385;-84
2022/04/24 03:24:03;;;;;;;8.40;5.90;;;6.30;99.90;;;;;;5069732;28;20401;-83
2022/04/24 03:26:29;;;;;;;9.57;6.50;;;6.30;99.90;;;;;;5070598;28;20385;-83
2022/04/24 03:28:56;;;;;;;8.83;6.33;;;6.50;99.90;;;;;;5071993;28;20386;-83
2022/04/24 03:31:23;;;;;;;9.07;6.68;;;6.40;99.90;;;;;;5069789;28;20392;-83
2022/04/24 03:33:48;;;;;;;10.27;6.35;;;6.40;99.90;;;;;;5070521;28;20436;-83
2022/04/24 03:36:14;;;;;;;7.50;6.10;;;6.40;99.90;;;;;;5068712;28;20381;-83
2022/04/24 03:38:40;;;;;;;10.10;6.30;;;6.40;99.90;;;;;;5068579;28;20898;-83
2022/04/24 03:41:05;;;;;;;9.07;6.80;;;6.30;99.90;;;;;;5087410;28;20492;-83
2022/04/24 03:43:31;;;;;;;7.10;6.13;;;6.30;99.90;;;;;;5088625;28;21036;-83
2022/04/24 03:45:57;;;;;;;10.50;6.63;;;6.40;99.90;;;;;;5089641;28;20394;-82
2022/04/24 03:48:22;;;;;;;9.40;6.50;;;6.30;99.90;;;;;;5088994;28;20380;-83
2022/04/24 03:50:48;;;;;;;9.15;6.90;;;6.30;99.90;;;;;;5088397;28;20369;-83
2022/04/24 03:53:13;;;;;;;8.93;6.80;;;6.30;99.90;;;;;;5086567;28;20890;-83
2022/04/24 03:55:39;;;;;;;8.67;6.50;;;6.30;99.90;;;;;;5087484;28;20377;-84
2022/04/24 03:58:05;;;;;;;10.20;7.20;;;6.30;99.90;;;;;;5084603;28;20766;-83
2022/04/24 04:00:30;;;;;;;8.30;6.20;;;6.30;99.90;;;;;;5067300;28;20390;-83
2022/04/24 04:02:56;;;;;;;8.55;6.50;;;6.30;99.90;;;;;;5067956;28;20397;-84
2022/04/24 04:05:22;;;;;;;8.37;6.30;;;6.40;99.90;;;;;;5068452;28;20471;-85
2022/04/24 04:07:48;;;;;;;9.40;6.45;;;6.30;99.90;;;;;;5067801;28;20880;-83
2022/04/24 04:10:13;;;;;;;8.80;6.17;;;6.30;99.90;;;;;;5067406;28;20507;-84
2022/04/24 04:12:39;;;;;;;12.80;6.80;;;6.30;99.90;;;;;;5069249;28;20874;-84
2022/04/24 04:15:06;;;;;;;7.33;6.30;;;6.40;99.90;;;;;;5085339;28;20381;-84
2022/04/24 04:17:34;;;;;;;8.82;6.25;;;6.40;99.90;;;;;;5088212;28;20377;-84
2022/04/24 04:20:00;;;;;;;10.68;6.38;;;6.40;99.90;;;;;;5077528;28;20379;-83
2022/04/24 04:22:26;;;;;;;9.52;6.32;;;6.40;99.90;;;;;;5069511;28;20393;-83
2022/04/24 04:24:52;;;;;;;9.17;6.50;;;6.30;99.90;;;;;;5067244;28;20468;-83
2022/04/24 04:27:18;;;;;;;10.18;6.32;;;6.30;99.90;;;;;;5068824;28;20462;-83
2022/04/24 04:29:44;;;;;;;9.87;6.47;;;6.40;99.90;;;;;;5067413;28;20419;-83
2022/04/24 04:32:10;;;;;;;9.53;6.80;;;6.50;99.90;;;;;;5071938;28;20381;-84
2022/04/24 04:34:35;;;;;;;10.18;6.65;;;6.50;99.90;;;;;;5072017;28;20384;-83
2022/04/24 04:37:01;;;;;;;11.57;6.72;;;6.50;99.90;;;;;;5071339;28;20387;-85
2022/04/24 04:39:27;;;;;;;10.17;6.80;;;6.70;99.90;;;;;;5071286;28;20370;-84
2022/04/24 04:41:52;;;;;;;10.30;6.20;;;6.70;99.90;;;;;;5071452;28;20385;-83
2022/04/24 04:44:18;;;;;;;9.87;6.60;;;6.90;99.90;;;;;;5072449;28;20463;-84
2022/04/24 04:46:43;;;;;;;10.00;6.35;;;7.00;99.90;;;;;;5077828;28;20374;-84
2022/04/24 04:49:09;;;;;;;12.07;6.43;;;7.10;99.90;;;;;;5072552;28;20380;-83
2022/04/24 04:51:35;;;;;;;9.05;6.10;;;7.20;99.90;;;;;;5072250;28;20366;-83
2022/04/24 04:54:01;;;;;;;8.90;6.53;;;7.30;99.90;;;;;;5070592;28;20382;-84
2022/04/24 04:56:26;;;;;;;9.37;6.40;;;7.40;99.90;;;;;;5070835;28;20389;-84
2022/04/24 04:58:52;;;;;;;9.75;6.63;;;7.40;99.90;;;;;;5071315;28;20817;-83
2022/04/24 05:01:20;;;;;;;9.15;6.30;;;7.30;99.90;;;;;;5070971;28;20449;-84
2022/04/24 05:03:46;;;;;;;8.35;6.18;;;7.40;99.90;;;;;;5091795;28;20420;-83
2022/04/24 05:06:12;;;;;;;10.07;6.13;;;7.50;99.90;;;;;;5092645;28;20419;-82
2022/04/24 05:08:37;;;;;;;10.27;7.00;;;7.60;99.90;;;;;;5086485;28;20370;-84
2022/04/24 05:11:03;;;;;;;11.10;6.40;;;7.70;99.90;;;;;;5073576;28;20837;-85
2022/04/24 05:13:28;;;;;;;11.80;7.03;;;7.80;99.90;;;;;;5072066;28;20398;-83
2022/04/24 05:15:54;;;;;;;10.65;6.20;;;7.90;99.90;;;;;;5071192;28;20390;-83
2022/04/24 05:18:20;;;;;;;10.23;6.70;;;7.90;99.90;;;;;;5072120;28;20393;-84
2022/04/24 05:20:50;;;;;;;10.47;6.53;;;8.00;99.90;;;;;;5070397;28;20367;-84
2022/04/24 05:23:15;;;;;;;8.70;6.32;;;7.80;99.90;;;;;;5076813;28;20565;-82
2022/04/24 05:25:41;;;;;;;9.90;6.73;;;7.90;99.90;;;;;;5090704;28;20459;-83
2022/04/24 05:28:07;;;;;;;11.23;6.88;;;7.90;99.90;;;;;;5086849;27;20427;-83
2022/04/24 05:30:33;;;;;;;9.93;7.10;;;7.90;99.90;;;;;;5070713;28;20382;-83
2022/04/24 05:32:59;;;;;;;10.23;7.00;;;7.80;99.90;;;;;;5070862;28;20378;-84
2022/04/24 05:35:25;;;;;;;10.75;6.88;;;7.80;99.90;;;;;;5070637;28;20370;-83
2022/04/24 05:37:50;;;;;;;11.20;7.13;;;7.80;99.90;;;;;;5069686;28;20483;-84
2022/04/24 05:40:17;;;;;;;11.32;7.20;;;7.80;99.90;;;;;;5072293;28;20373;-84
2022/04/24 05:42:51;;;;;;;9.70;7.18;;;8.00;99.90;;;;;;5070748;28;20553;-84
2022/04/24 05:45:22;;;;;;;9.98;7.47;;;8.00;99.90;;;;;;5069988;28;20382;-83
2022/04/24 05:47:49;;;;;;;11.90;7.30;;;8.20;99.90;;;;;;5069348;28;20393;-83
2022/04/24 05:50:14;;;;;;;11.43;7.22;;;8.10;99.90;;;;;;5069263;28;20392;-84
2022/04/24 05:52:41;;;;;;;11.17;6.87;;;8.20;99.90;;;;;;5071075;28;20457;-84
2022/04/24 05:55:07;;;;;;;8.98;6.90;;;8.30;99.90;;;;;;5070007;28;20458;-85
2022/04/24 05:57:34;;;;;;;10.93;7.57;;;8.40;99.90;;;;;;5068808;28;20826;-83
2022/04/24 06:00:00;;;;;;;12.15;7.50;;;8.50;99.90;;;;;;5068611;28;20404;-83
2022/04/24 06:02:25;;;;;;;13.97;7.43;;;8.50;99.90;;;;;;5069812;28;20875;-83
2022/04/24 06:04:53;;;;;;;12.07;7.85;;;8.50;99.90;;;;;;5085979;28;20467;-84
2022/04/24 06:07:19;;;;;;;9.77;7.10;;;8.50;99.90;;;;;;5070730;28;20400;-83
2022/04/24 06:09:44;;;;;;;12.23;7.47;;;8.60;99.90;;;;;;5068439;28;20382;-83
2022/04/24 06:12:10;;;;;;;10.87;7.57;;;8.70;99.90;;;;;;5069816;28;20366;-82
2022/04/24 06:14:35;;;;;;;8.40;7.00;;;8.80;99.90;;;;;;5069459;28;20880;-85
2022/04/24 06:17:12;;;;;;;11.73;7.63;;;8.90;99.90;;;;;;5069844;28;20382;-82
2022/04/24 06:19:39;;;;;;;8.43;6.75;;;8.90;99.90;;;;;;5079213;28;20392;-83
2022/04/24 06:22:05;;;;;;;10.77;7.40;;;9.10;99.90;;;;;;5089253;28;20925;-83
2022/04/24 06:24:31;;;;;;;9.10;7.37;;;9.20;99.90;;;;;;5088272;28;20490;-84
2022/04/24 06:26:56;;;;;;;10.95;7.65;;;9.20;99.90;;;;;;5077201;28;20398;-84
2022/04/24 06:29:22;;;;;;;12.10;7.50;;;9.30;99.90;;;;;;5076576;28;20388;-84
2022/04/24 06:31:50;;;;;;;13.13;8.00;;;9.20;99.90;;;;;;5089181;28;20376;-84
2022/04/24 06:34:16;;;;;;;10.60;7.45;;;9.20;99.90;;;;;;5089296;28;20408;-84
2022/04/24 06:36:41;;;;;;;13.30;7.77;;;9.40;99.90;;;;;;5087495;28;20407;-85
2022/04/24 06:39:07;;;;;;;9.40;7.22;;;9.40;99.90;;;;;;5088094;28;20380;-84
2022/04/24 06:41:33;;;;;;;10.98;8.00;;;9.40;99.90;;;;;;5088671;28;20452;-84
2022/04/24 06:43:59;;;;;;;11.40;7.85;;;9.50;99.90;;;;;;5088311;28;21082;-84
2022/04/24 06:46:24;;;;;;;9.10;7.50;;;9.70;99.90;;;;;;5089793;28;20437;-85
2022/04/24 06:48:51;;;;;;;51.72;10.50;;;9.90;99.90;;;;;;5090389;28;20376;-84
2022/04/24 06:51:17;;;;;;;11.20;7.17;;;10.30;99.90;;;;;;5088821;28;20377;-84
2022/04/24 06:53:42;;;;;;;8.90;7.20;;;10.30;99.90;;;;;;5086191;28;20943;-84
2022/04/24 06:56:08;;;;;;;9.05;7.15;;;10.30;99.90;;;;;;5086084;28;20426;-83
2022/04/24 06:58:33;;;;;;;18.65;8.23;;;10.40;99.90;;;;;;5080675;28;20756;-84
2022/04/24 07:00:59;;;;;;;10.63;8.07;;;10.80;99.90;;;;;;5068529;28;20382;-84
2022/04/24 07:03:26;;;;;;;9.02;7.35;;;11.20;99.90;;;;;;5070086;28;20514;-83
2022/04/24 07:06:00;;;;;;;9.48;6.85;;;11.40;99.90;;;;;;5068206;28;20387;-85
2022/04/24 07:08:29;;;;;;;9.82;7.82;;;11.60;99.90;;;;;;5069711;28;20388;-83
2022/04/24 07:10:54;;;;;;;11.98;7.65;;;11.60;99.90;;;;;;5068740;28;20378;-83
2022/04/24 07:13:20;;;;;;;10.77;7.90;;;11.40;99.90;;;;;;5069514;28;20370;-84
2022/04/24 07:15:46;;;;;;;10.73;7.57;;;11.20;99.90;;;;;;5069370;28;20410;-84
2022/04/24 07:18:12;;;;;;;9.77;7.50;;;11.50;99.90;;;;;;5069751;28;20452;-84
2022/04/24 07:20:38;;;;;;;10.68;7.57;;;11.90;99.90;;;;;;5081502;28;20929;-84
2022/04/24 07:23:05;;;;;;;8.57;7.55;;;12.10;99.90;;;;;;5070484;28;20921;-85
2022/04/24 07:25:40;;;;;;;13.95;7.85;;;12.30;99.90;;;;;;5070687;28;20381;-83
2022/04/24 07:28:07;;;;;;;10.40;7.82;;;12.20;99.90;;;;;;5071677;27;20389;-86
2022/04/24 07:30:32;;;;;;;8.88;7.43;;;12.40;99.90;;;;;;5089912;28;20917;-84
2022/04/24 07:32:59;;;;;;;14.60;8.63;;;12.50;99.90;;;;;;5090662;28;20404;-83
2022/04/24 07:35:31;;;;;;;12.43;7.80;;;12.50;99.90;;;;;;5088953;28;20425;-83
2022/04/24 07:37:57;;;;;;;10.57;6.85;;;12.80;99.90;;;;;;5072383;28;20390;-83
2022/04/24 07:40:26;;;;;;;10.63;7.75;;;12.90;99.90;;;;;;5069929;28;20371;-83
2022/04/24 07:42:55;;;;;;;13.98;8.15;;;12.60;99.90;;;;;;5069146;28;20535;-83
2022/04/24 07:45:27;;;;;;;12.90;8.13;;;12.30;99.90;;;;;;5075259;28;20552;-85
2022/04/24 07:47:54;;;;;;;11.50;7.25;;;12.30;99.90;;;;;;5085327;28;20392;-84
2022/04/24 07:50:22;;;;;;;11.27;7.45;;;12.30;99.90;;;;;;5082317;28;20401;-83
2022/04/24 07:52:48;;;;;;;10.27;7.32;;;12.70;99.90;;;;;;5088381;28;20387;-83
2022/04/24 07:55:19;;;;;;;7.97;7.07;;;12.90;99.90;;;;;;5087736;28;20882;-83
2022/04/24 07:57:48;;;;;;;8.95;7.28;;;12.90;99.90;;;;;;5088667;28;20388;-83
2022/04/24 08:00:20;;;;;;;8.40;7.15;;;13.10;99.90;;;;;;5064913;28;20479;-86
2022/04/24 08:02:57;;;;;;;10.57;7.10;;;13.30;99.90;;;;;;5069440;28;20841;-83
2022/04/24 08:05:31;;;;;;;13.93;7.38;;;13.50;99.90;;;;;;5069383;28;20390;-85
2022/04/24 08:07:59;;;;;;;9.13;6.65;;;13.70;99.90;;;;;;5075709;28;20381;-84
2022/04/24 08:10:31;;;;;;;8.32;6.60;;;13.90;99.90;;;;;;5096158;28;20404;-84
2022/04/24 08:12:57;;;;;;;9.30;6.80;;;14.10;99.90;;;;;;5092086;28;20383;-83
2022/04/24 08:15:23;;;;;;;8.68;6.40;;;14.10;99.90;;;;;;5071834;28;20394;-83
2022/04/24 08:17:49;;;;;;;9.75;6.70;;;14.10;99.90;;;;;;5072110;28;20374;-84
2022/04/24 08:20:16;;;;;;;11.80;7.28;;;14.10;99.90;;;;;;5079777;28;20424;-82
2022/04/24 08:22:47;;;;;;;10.55;7.47;;;14.30;99.90;;;;;;5092267;28;20940;-83
2022/04/24 08:25:15;;;;;;;11.20;6.85;;;14.30;99.90;;;;;;5088575;28;20372;-84
2022/04/24 08:27:41;;;;;;;9.63;6.50;;;14.40;99.90;;;;;;5091813;28;20412;-82
2022/04/24 08:30:09;;;;;;;8.90;6.38;;;14.30;99.90;;;;;;5074395;28;20382;-84
2022/04/24 08:32:36;;;;;;;9.15;6.45;;;14.00;99.90;;;;;;5072121;28;20425;-83
2022/04/24 08:35:04;;;;;;;9.10;6.43;;;14.20;99.90;;;;;;5073598;28;20427;-83
2022/04/24 08:37:29;;;;;;;8.23;6.47;;;14.40;99.90;;;;;;5070835;28;20394;-85
2022/04/24 08:39:56;;;;;;;9.90;6.80;;;14.70;99.90;;;;;;5080895;27;20398;-84
2022/04/24 08:42:21;;;;;;;10.77;6.95;;;14.90;99.30;;;;;;5078364;28;20500;-86
2022/04/24 08:44:51;;;;;;;10.60;6.90;;;14.70;98.90;;;;;;5072312;28;20487;-85
2022/04/24 08:47:18;;;;;;;10.93;6.68;;;14.30;99.10;;;;;;5079482;28;20379;-85
2022/04/24 08:49:45;;;;;;;9.13;6.53;;;14.20;99.90;;;;;;5049728;28;20521;-84
2022/04/24 08:52:13;;;;;;;9.77;6.53;;;14.20;99.90;;;;;;5083328;28;20513;-84
2022/04/24 08:54:41;;;;;;;7.78;6.20;;;14.30;99.90;;;;;;5070778;28;20404;-87
2022/04/24 08:57:11;;;;;;;7.00;5.43;;;14.70;99.90;;;;;;5069324;28;20536;-84
2022/04/24 08:59:37;;;;;;;7.53;5.47;;;15.20;99.80;;;;;;5068859;28;20380;-84
2022/04/24 09:02:04;;;;;;;8.45;5.93;;;15.70;97.10;;;;;;5073406;28;20377;-84
2022/04/24 09:04:34;;;;;;;7.88;5.72;;;15.70;97.40;;;;;;5073348;28;20394;-84
2022/04/24 09:07:03;;;;;;;10.73;6.50;;;16.30;96.30;;;;;;5072653;28;20379;-85
2022/04/24 09:09:32;;;;;;;8.32;5.47;;;16.70;95.50;;;;;;5073106;28;20397;-85
2022/04/24 09:12:28;;;;;;;8.52;5.70;;;16.80;96.20;;;;;;5068890;28;20793;-85
2022/04/24 09:14:56;;;;;;;7.93;5.47;;;17.10;94.50;;;;;;5073934;28;20390;-84
2022/04/24 09:17:24;;;;;;;21.80;6.45;;;16.90;94.30;;;;;;5071659;28;20392;-83
2022/04/24 09:19:51;;;;;;;8.38;5.68;;;16.50;93.70;;;;;;5071249;28;20863;-85
2022/04/24 09:22:17;;;;;;;12.02;5.90;;;16.20;94.00;;;;;;5072491;28;20378;-84
2022/04/24 09:24:52;;;;;;;8.00;5.97;;;16.00;94.30;;;;;;5076142;28;20402;-85
2022/04/24 09:27:32;;;;;;;7.90;5.65;;;16.10;93.80;;;;;;5070208;28;20421;-86
2022/04/24 09:30:08;;;;;;;6.95;5.55;;;16.20;94.20;;;;;;5069165;28;20397;-85
2022/04/24 09:44:39;;;;;;;9.05;6.13;;;16.50;93.60;;;;;;5092688;27;20775;-83
2022/04/24 09:47:05;;;;;;;7.57;5.70;;;16.50;94.60;;;;;;5058227;28;20892;-83
2022/04/24 09:49:38;;;;;;;8.15;5.60;;;16.40;93.90;;;;;;5056038;28;20383;-83
2022/04/24 09:52:10;;;;;;;8.90;6.00;;;16.40;93.10;;;;;;5059503;28;20407;-83
2022/04/24 09:54:37;;;;;;;8.47;5.80;;;16.50;92.70;;;;;;5057387;28;20410;-85
2022/04/24 09:57:04;;;;;;;8.82;5.65;;;16.70;93.20;;;;;;5057637;28;20447;-84
2022/04/24 09:59:30;;;;;;;11.57;6.00;;;16.90;93.30;;;;;;5059275;27;20471;-83
2022/04/24 10:01:56;;;;;;;7.93;5.50;;;16.90;92.90;;;;;;5059371;28;21111;-83
2022/04/24 10:04:23;;;;;;;10.33;5.50;;;16.70;92.90;;;;;;5058012;28;20432;-83
2022/04/24 10:06:49;;;;;;;7.22;5.50;;;16.50;93.00;;;;;;5058188;28;20387;-83
2022/04/24 10:09:16;;;;;;;9.23;6.05;;;16.60;92.70;;;;;;5064720;28;20512;-82
2022/04/24 10:11:42;;;;;;;9.43;5.40;;;16.90;93.20;;;;;;5060606;28;20786;-84
2022/04/24 10:14:11;;;;;;;6.95;6.25;;;16.90;92.20;;;;;;5061526;28;20403;-84
2022/04/24 10:17:06;;;;;;;6.30;5.10;;;16.90;91.40;;;;;;5060426;28;20391;-82
2022/04/24 10:19:36;;;;;;;10.03;6.20;;;17.00;91.60;;;;;;5055749;28;20882;-84
2022/04/24 10:22:23;;;;;;;19.55;7.15;;;17.50;92.20;;;;;;5057780;27;20467;-85
2022/04/24 10:24:59;;;;;;;11.32;5.85;;;17.60;91.90;;;;;;5054598;28;20434;-82
2022/04/24 10:27:41;;;;;;;9.07;5.82;;;17.50;91.10;;;;;;5060421;28;20904;-85
2022/04/24 10:30:22;;;;;;;7.30;5.40;;;17.30;90.40;;;;;;5054635;28;20411;-84
2022/04/24 10:32:48;;;;;;;7.90;5.57;;;17.50;90.10;;;;;;5059339;27;20464;-85
2022/04/24 10:35:19;;;;;;;8.00;5.05;;;17.60;88.30;;;;;;5060712;27;20474;-84
2022/04/24 10:37:48;;;;;;;6.65;4.97;;;17.80;88.40;;;;;;5057167;27;20467;-83
2022/04/24 10:40:16;;;;;;;9.82;4.75;;;18.00;87.80;;;;;;5055803;28;20387;-84
2022/04/24 10:42:46;;;;;;;22.60;6.40;;;18.20;89.80;;;;;;5060902;28;20865;-85
2022/04/24 10:45:20;;;;;;;12.43;6.00;;;18.30;89.80;;;;;;5046151;27;20802;-84
2022/04/24 10:47:55;;;;;;;19.42;6.05;;;18.30;90.00;;;;;;5045139;28;20395;-84
2022/04/24 10:50:22;;;;;;;6.95;4.90;;;18.20;89.40;;;;;;5045650;28;20428;-85
2022/04/24 10:52:52;;;;;;;9.77;5.32;;;18.30;89.50;;;;;;5048039;28;20430;-85
2022/04/24 10:55:22;;;;;;;8.90;5.90;;;18.20;89.50;;;;;;5044810;28;20380;-84
2022/04/24 10:57:57;;;;;;;21.58;6.85;;;18.10;90.30;;;;;;5044382;28;20388;-84
2022/04/24 11:00:31;;;;;;;9.02;5.63;;;18.00;90.30;;;;;;5045783;28;20397;-84
2022/04/24 11:03:06;;;;;;;10.20;6.13;;;17.90;90.10;;;;;;5046603;28;20400;-85
2022/04/24 11:05:36;;;;;;;11.50;5.68;;;17.80;90.60;;;;;;5044668;28;20394;-84
2022/04/24 11:08:03;;;;;;;8.32;5.70;;;18.10;90.30;;;;;;5045328;28;20471;-84
2022/04/24 11:10:42;;;;;;;10.48;5.20;;;18.20;88.80;;;;;;5045250;28;20452;-87
2022/04/24 11:13:19;;;;;;;8.90;5.55;;;18.40;88.70;;;;;;5043227;28;20436;-86
2022/04/24 11:15:47;;;;;;;9.32;5.88;;;18.30;88.30;;;;;;5041867;28;20869;-87
2022/04/24 11:18:23;;;;;;;7.28;5.22;;;18.10;87.90;;;;;;5046112;28;20376;-87
2022/04/24 11:21:03;;;;;;;5.90;5.30;;;17.80;89.60;;;;;;5044063;28;20382;-85
2022/04/24 11:23:35;;;;;;;8.38;5.60;;;17.60;90.20;;;;;;5042581;28;20471;-86
2022/04/24 11:26:05;;;;;;;5.50;5.00;;;17.50;90.00;;;;;;5043914;28;20396;-84
2022/04/24 11:28:39;;;;;;;6.22;4.55;;;17.50;88.50;;;;;;5041195;28;20391;-84
2022/04/24 11:31:14;;;;;;;5.40;4.30;;;17.70;87.20;;;;;;5044571;28;20376;-86
2022/04/24 11:33:49;;;;;;;5.45;4.30;;;17.70;87.20;;;;;;5044246;28;20412;-85
2022/04/24 11:36:15;;;;;;;4.97;4.07;;;17.90;85.90;;;;;;5043601;28;20376;-87
2022/04/24 11:38:40;;;;;;;6.13;3.90;;;18.00;86.00;;;;;;5043484;27;20375;-83
2022/04/24 11:41:07;;;;;;;6.82;4.15;;;18.10;84.30;;;;;;5043218;28;21002;-84
2022/04/24 11:43:39;;;;;;;5.70;4.05;;;18.30;82.60;;;;;;5078746;28;20427;-85
2022/04/24 11:51:40;;;;;;;11.20;4.55;;;18.30;84.50;;;;;;5043958;28;20368;-84
2022/04/24 11:54:08;;;;;;;5.77;4.00;;;18.00;84.90;;;;;;5075990;28;20741;-83
2022/04/24 11:56:36;;;;;;;16.27;13.02;;;17.80;82.90;;;;;;5040166;28;20446;-86
2022/04/24 11:59:35;;;;;;;9.90;4.25;;;17.90;83.30;;;;;;5042947;28;20441;-85
2022/04/24 12:02:01;;;;;;;12.35;5.20;;;17.90;81.80;;;;;;5021200;28;20399;-84
2022/04/24 12:04:31;;;;;;;7.90;5.05;;;18.00;84.90;;;;;;5043367;28;20401;-86
2022/04/24 12:07:04;;;;;;;8.43;4.82;;;17.90;85.60;;;;;;5040912;28;20400;-83
2022/04/24 12:09:31;;;;;;;8.63;4.65;;;17.70;86.40;;;;;;5074392;28;20387;-83
2022/04/24 12:12:08;;;;;;;6.20;4.22;;;17.70;86.60;;;;;;5042067;28;20396;-83
2022/04/24 12:14:35;;;;;;;7.65;5.10;;;17.70;87.10;;;;;;5039336;27;20469;-86
2022/04/24 12:17:05;;;;;;;4.90;4.38;;;17.80;87.60;;;;;;5052597;27;20480;-86
2022/04/24 12:19:31;;;;;;;7.40;4.50;;;17.70;86.60;;;;;;5049117;27;20524;-84
2022/04/24 12:22:06;;;;;;;8.77;4.65;;;17.60;86.60;;;;;;5043643;27;20396;-85
2022/04/24 12:24:44;;;;;;;5.55;3.80;;;17.80;87.60;;;;;;5075526;28;20392;-85
2022/04/24 12:27:14;;;;;;;5.20;3.85;;;17.90;86.70;;;;;;5042458;28;20384;-84
2022/04/24 12:29:48;;;;;;;5.97;4.07;;;18.00;85.30;;;;;;5040169;28;20442;-85
2022/04/24 12:32:14;;;;;;;4.60;4.00;;;17.90;84.60;;;;;;5043150;28;20411;-85
2022/04/24 12:34:47;;;;;;;18.48;5.55;;;17.60;84.90;;;;;;5036571;28;20413;-85
2022/04/24 12:37:15;;;;;;;14.05;4.32;;;17.60;84.50;;;;;;5033763;28;20429;-83
2022/04/24 12:39:52;;;;;;;4.90;4.10;;;17.50;85.80;;;;;;5032545;28;20540;-85
2022/04/24 12:42:19;;;;;;;4.93;4.10;;;17.60;84.40;;;;;;5032243;28;20393;-86
2022/04/24 12:44:52;;;;;;;4.82;3.95;;;17.50;84.40;;;;;;5030847;28;20404;-85
2022/04/24 12:47:36;;;;;;;14.70;4.90;;;17.50;85.60;;;;;;5041790;28;20395;-83
2022/04/24 12:50:04;;;;;;;5.50;3.88;;;17.60;84.20;;;;;;5042008;28;20404;-85
2022/04/24 12:52:30;;;;;;;6.47;4.10;;;17.60;86.20;;;;;;5041850;28;20447;-83
2022/04/24 12:54:55;;;;;;;5.27;3.43;;;17.60;83.60;;;;;;5052240;28;20384;-85
2022/04/24 12:57:21;;;;;;;8.68;3.80;;;17.70;82.50;;;;;;5050662;28;20388;-84
2022/04/24 12:59:47;;;;;;;4.13;3.35;;;17.90;83.80;;;;;;5050301;28;20810;-83
2022/04/24 13:02:13;;;;;;;8.23;4.17;;;18.10;80.70;;;;;;5048800;27;20400;-85
2022/04/24 13:04:39;;;;;;;5.05;3.33;;;17.80;79.40;;;;;;5053154;28;20511;-82
2022/04/24 13:07:06;;;;;;;11.30;3.70;;;17.70;80.00;;;;;;5050115;27;20464;-85
2022/04/24 13:09:31;;;;;;;3.90;3.40;;;17.50;80.20;;;;;;5082103;28;20409;-85